sensor_id;sensor_type;location;lat;lon;timestamp;P1;durP1;ratioP1;P2;durP2;ratioP2
7295;SDS011;40758;54.038;11.684;2023-08-08T00:01:47;7.00;;;1.77;;
7295;SDS011;40758;54.038;11.684;2023-08-08T00:04:13;8.27;;;1.85;;
7295;SDS011;40758;54.038;11.684;2023-08-08T00:06:40;9.07;;;1.92;;
7295;SDS011;40758;54.038;11.684;2023-08-08T00:09:07;9.23;;;1.85;;
7295;SDS011;40758;54.038;11.684;2023-08-08T00:11:33;7.57;;;1.92;;
7295;SDS011;40758;54.038;11.684;2023-08-08T00:14:00;5.97;;;1.55;;
7295;SDS011;40758;54.038;11.684;2023-08-08T00:16:31;6.00;;;1.10;;
7295;SDS011;40758;54.038;11.684;2023-08-08T00:18:58;6.38;;;1.00;;
7295;SDS011;40758;54.038;11.684;2023-08-08T00:21:24;6.72;;;1.23;;
7295;SDS011;40758;54.038;11.684;2023-08-08T00:23:51;8.13;;;1.67;;
7295;SDS011;40758;54.038;11.684;2023-08-08T00:26:18;6.70;;;1.13;;
7295;SDS011;40758;54.038;11.684;2023-08-08T00:28:45;7.57;;;1.50;;
7295;SDS011;40758;54.038;11.684;2023-08-08T00:31:12;10.73;;;3.00;;
7295;SDS011;40758;54.038;11.684;2023-08-08T00:33:40;4.13;;;1.30;;
7295;SDS011;40758;54.038;11.684;2023-08-08T00:36:06;8.15;;;1.58;;
7295;SDS011;40758;54.038;11.684;2023-08-08T00:38:33;5.07;;;1.23;;
7295;SDS011;40758;54.038;11.684;2023-08-08T00:41:00;7.30;;;3.80;;
7295;SDS011;40758;54.038;11.684;2023-08-08T00:43:27;5.57;;;1.65;;
7295;SDS011;40758;54.038;11.684;2023-08-08T00:45:56;4.15;;;1.27;;
7295;SDS011;40758;54.038;11.684;2023-08-08T00:48:23;5.50;;;1.00;;
7295;SDS011;40758;54.038;11.684;2023-08-08T00:50:52;4.60;;;1.15;;
7295;SDS011;40758;54.038;11.684;2023-08-08T00:53:19;5.22;;;0.80;;
7295;SDS011;40758;54.038;11.684;2023-08-08T00:55:58;5.80;;;4.47;;
7295;SDS011;40758;54.038;11.684;2023-08-08T00:58:25;7.55;;;1.20;;
7295;SDS011;40758;54.038;11.684;2023-08-08T01:00:54;5.38;;;1.83;;
7295;SDS011;40758;54.038;11.684;2023-08-08T01:03:24;5.93;;;1.73;;
7295;SDS011;40758;54.038;11.684;2023-08-08T01:06:37;6.47;;;2.97;;
7295;SDS011;40758;54.038;11.684;2023-08-08T01:09:05;5.85;;;1.42;;
7295;SDS011;40758;54.038;11.684;2023-08-08T01:11:35;5.95;;;1.42;;
7295;SDS011;40758;54.038;11.684;2023-08-08T01:14:03;6.20;;;1.83;;
7295;SDS011;40758;54.038;11.684;2023-08-08T01:16:33;6.68;;;1.48;;
7295;SDS011;40758;54.038;11.684;2023-08-08T01:19:03;4.72;;;0.90;;
7295;SDS011;40758;54.038;11.684;2023-08-08T01:21:33;4.63;;;0.85;;
7295;SDS011;40758;54.038;11.684;2023-08-08T01:24:25;8.20;;;2.20;;
7295;SDS011;40758;54.038;11.684;2023-08-08T01:26:56;5.78;;;1.17;;
7295;SDS011;40758;54.038;11.684;2023-08-08T01:29:24;4.82;;;0.80;;
7295;SDS011;40758;54.038;11.684;2023-08-08T01:31:51;6.55;;;1.38;;
7295;SDS011;40758;54.038;11.684;2023-08-08T01:34:18;6.25;;;1.70;;
7295;SDS011;40758;54.038;11.684;2023-08-08T01:36:49;6.13;;;2.03;;
7295;SDS011;40758;54.038;11.684;2023-08-08T01:39:29;6.95;;;1.23;;
7295;SDS011;40758;54.038;11.684;2023-08-08T01:41:59;7.80;;;1.50;;
7295;SDS011;40758;54.038;11.684;2023-08-08T01:44:28;9.52;;;1.80;;
7295;SDS011;40758;54.038;11.684;2023-08-08T01:46:56;7.38;;;1.52;;
7295;SDS011;40758;54.038;11.684;2023-08-08T01:49:23;5.10;;;1.75;;
7295;SDS011;40758;54.038;11.684;2023-08-08T01:51:50;5.07;;;1.98;;
7295;SDS011;40758;54.038;11.684;2023-08-08T01:54:20;4.65;;;1.33;;
7295;SDS011;40758;54.038;11.684;2023-08-08T01:56:46;7.18;;;1.48;;
7295;SDS011;40758;54.038;11.684;2023-08-08T01:59:13;5.47;;;1.48;;
7295;SDS011;40758;54.038;11.684;2023-08-08T02:01:41;4.95;;;1.50;;
7295;SDS011;40758;54.038;11.684;2023-08-08T02:04:08;10.20;;;1.70;;
7295;SDS011;40758;54.038;11.684;2023-08-08T02:06:35;7.65;;;1.80;;
7295;SDS011;40758;54.038;11.684;2023-08-08T02:09:02;6.97;;;2.05;;
7295;SDS011;40758;54.038;11.684;2023-08-08T02:11:28;5.15;;;1.63;;
7295;SDS011;40758;54.038;11.684;2023-08-08T02:13:55;6.25;;;1.08;;
7295;SDS011;40758;54.038;11.684;2023-08-08T02:16:22;5.97;;;2.50;;
7295;SDS011;40758;54.038;11.684;2023-08-08T02:18:48;6.93;;;1.50;;
7295;SDS011;40758;54.038;11.684;2023-08-08T02:21:16;7.80;;;0.85;;
7295;SDS011;40758;54.038;11.684;2023-08-08T02:23:43;4.38;;;1.85;;
7295;SDS011;40758;54.038;11.684;2023-08-08T02:26:09;9.77;;;1.80;;
7295;SDS011;40758;54.038;11.684;2023-08-08T02:28:36;8.13;;;1.73;;
7295;SDS011;40758;54.038;11.684;2023-08-08T02:31:04;5.72;;;1.98;;
7295;SDS011;40758;54.038;11.684;2023-08-08T02:33:31;5.88;;;1.00;;
7295;SDS011;40758;54.038;11.684;2023-08-08T02:36:00;6.65;;;2.30;;
7295;SDS011;40758;54.038;11.684;2023-08-08T02:38:27;6.65;;;1.70;;
7295;SDS011;40758;54.038;11.684;2023-08-08T02:40:54;6.47;;;1.52;;
7295;SDS011;40758;54.038;11.684;2023-08-08T02:43:21;6.18;;;1.50;;
7295;SDS011;40758;54.038;11.684;2023-08-08T02:45:47;6.40;;;1.63;;
7295;SDS011;40758;54.038;11.684;2023-08-08T02:48:14;6.63;;;1.77;;
7295;SDS011;40758;54.038;11.684;2023-08-08T02:50:41;6.63;;;1.63;;
7295;SDS011;40758;54.038;11.684;2023-08-08T02:53:08;12.20;;;1.33;;
7295;SDS011;40758;54.038;11.684;2023-08-08T02:55:35;6.47;;;1.70;;
7295;SDS011;40758;54.038;11.684;2023-08-08T02:58:02;7.20;;;1.95;;
7295;SDS011;40758;54.038;11.684;2023-08-08T03:00:29;11.95;;;2.03;;
7295;SDS011;40758;54.038;11.684;2023-08-08T03:02:56;7.03;;;2.15;;
7295;SDS011;40758;54.038;11.684;2023-08-08T03:05:23;8.25;;;1.50;;
7295;SDS011;40758;54.038;11.684;2023-08-08T03:07:49;5.75;;;1.55;;
7295;SDS011;40758;54.038;11.684;2023-08-08T03:10:19;7.80;;;1.83;;
7295;SDS011;40758;54.038;11.684;2023-08-08T03:12:48;6.93;;;1.40;;
7295;SDS011;40758;54.038;11.684;2023-08-08T03:15:15;6.40;;;1.20;;
7295;SDS011;40758;54.038;11.684;2023-08-08T03:17:42;5.18;;;1.48;;
7295;SDS011;40758;54.038;11.684;2023-08-08T03:20:09;5.03;;;1.35;;
7295;SDS011;40758;54.038;11.684;2023-08-08T03:22:37;7.88;;;2.53;;
7295;SDS011;40758;54.038;11.684;2023-08-08T03:25:07;7.53;;;2.25;;
7295;SDS011;40758;54.038;11.684;2023-08-08T03:27:33;8.52;;;1.83;;
7295;SDS011;40758;54.038;11.684;2023-08-08T03:30:00;4.85;;;1.27;;
7295;SDS011;40758;54.038;11.684;2023-08-08T03:32:27;5.07;;;1.38;;
7295;SDS011;40758;54.038;11.684;2023-08-08T03:34:54;4.50;;;1.30;;
7295;SDS011;40758;54.038;11.684;2023-08-08T03:37:21;7.65;;;2.03;;
7295;SDS011;40758;54.038;11.684;2023-08-08T03:39:48;7.47;;;2.72;;
7295;SDS011;40758;54.038;11.684;2023-08-08T03:42:15;4.63;;;0.95;;
7295;SDS011;40758;54.038;11.684;2023-08-08T03:44:41;7.57;;;2.80;;
7295;SDS011;40758;54.038;11.684;2023-08-08T03:47:08;5.68;;;2.35;;
7295;SDS011;40758;54.038;11.684;2023-08-08T03:49:45;6.80;;;3.15;;
7295;SDS011;40758;54.038;11.684;2023-08-08T03:52:12;6.10;;;1.48;;
7295;SDS011;40758;54.038;11.684;2023-08-08T03:54:39;6.63;;;1.63;;
7295;SDS011;40758;54.038;11.684;2023-08-08T03:57:06;6.95;;;1.55;;
7295;SDS011;40758;54.038;11.684;2023-08-08T03:59:36;4.70;;;3.75;;
7295;SDS011;40758;54.038;11.684;2023-08-08T04:02:03;6.85;;;3.85;;
7295;SDS011;40758;54.038;11.684;2023-08-08T04:04:32;6.10;;;3.38;;
7295;SDS011;40758;54.038;11.684;2023-08-08T04:07:00;4.57;;;0.93;;
7295;SDS011;40758;54.038;11.684;2023-08-08T04:09:27;6.55;;;1.25;;
7295;SDS011;40758;54.038;11.684;2023-08-08T04:11:53;5.70;;;1.17;;
7295;SDS011;40758;54.038;11.684;2023-08-08T04:14:20;6.40;;;1.92;;
7295;SDS011;40758;54.038;11.684;2023-08-08T04:16:47;5.53;;;1.50;;
7295;SDS011;40758;54.038;11.684;2023-08-08T04:19:14;5.90;;;1.77;;
7295;SDS011;40758;54.038;11.684;2023-08-08T04:21:40;8.50;;;0.88;;
7295;SDS011;40758;54.038;11.684;2023-08-08T04:24:07;5.93;;;1.20;;
7295;SDS011;40758;54.038;11.684;2023-08-08T04:26:34;7.78;;;1.00;;
7295;SDS011;40758;54.038;11.684;2023-08-08T04:29:01;5.28;;;1.50;;
7295;SDS011;40758;54.038;11.684;2023-08-08T04:31:27;5.90;;;1.42;;
7295;SDS011;40758;54.038;11.684;2023-08-08T04:33:55;6.20;;;0.90;;
7295;SDS011;40758;54.038;11.684;2023-08-08T04:36:27;7.00;;;0.93;;
7295;SDS011;40758;54.038;11.684;2023-08-08T04:39:02;5.28;;;1.48;;
7295;SDS011;40758;54.038;11.684;2023-08-08T04:41:29;5.57;;;1.02;;
7295;SDS011;40758;54.038;11.684;2023-08-08T04:43:55;5.13;;;1.60;;
7295;SDS011;40758;54.038;11.684;2023-08-08T04:46:22;7.22;;;1.85;;
7295;SDS011;40758;54.038;11.684;2023-08-08T04:48:49;4.78;;;1.10;;
7295;SDS011;40758;54.038;11.684;2023-08-08T04:51:16;6.15;;;1.17;;
7295;SDS011;40758;54.038;11.684;2023-08-08T04:53:43;8.15;;;3.28;;
7295;SDS011;40758;54.038;11.684;2023-08-08T04:56:09;6.93;;;1.80;;
7295;SDS011;40758;54.038;11.684;2023-08-08T04:58:36;4.75;;;1.35;;
7295;SDS011;40758;54.038;11.684;2023-08-08T05:01:03;5.10;;;1.30;;
7295;SDS011;40758;54.038;11.684;2023-08-08T05:03:30;6.13;;;1.00;;
7295;SDS011;40758;54.038;11.684;2023-08-08T05:05:57;5.38;;;1.20;;
7295;SDS011;40758;54.038;11.684;2023-08-08T05:10:55;5.97;;;1.40;;
7295;SDS011;40758;54.038;11.684;2023-08-08T05:13:22;4.97;;;1.30;;
7295;SDS011;40758;54.038;11.684;2023-08-08T05:15:49;7.13;;;1.10;;
7295;SDS011;40758;54.038;11.684;2023-08-08T05:18:15;4.90;;;0.82;;
7295;SDS011;40758;54.038;11.684;2023-08-08T05:20:42;4.25;;;1.27;;
7295;SDS011;40758;54.038;11.684;2023-08-08T05:23:08;5.32;;;1.45;;
7295;SDS011;40758;54.038;11.684;2023-08-08T05:25:35;5.68;;;1.05;;
7295;SDS011;40758;54.038;11.684;2023-08-08T05:28:02;7.72;;;1.25;;
7295;SDS011;40758;54.038;11.684;2023-08-08T05:30:29;4.95;;;1.98;;
7295;SDS011;40758;54.038;11.684;2023-08-08T05:32:58;6.25;;;1.77;;
7295;SDS011;40758;54.038;11.684;2023-08-08T05:35:25;4.50;;;1.13;;
7295;SDS011;40758;54.038;11.684;2023-08-08T05:37:52;3.13;;;1.02;;
7295;SDS011;40758;54.038;11.684;2023-08-08T05:40:18;5.68;;;1.80;;
7295;SDS011;40758;54.038;11.684;2023-08-08T05:42:45;4.95;;;1.35;;
7295;SDS011;40758;54.038;11.684;2023-08-08T05:45:12;4.40;;;1.88;;
7295;SDS011;40758;54.038;11.684;2023-08-08T05:47:38;3.50;;;1.33;;
7295;SDS011;40758;54.038;11.684;2023-08-08T05:50:05;3.80;;;1.50;;
7295;SDS011;40758;54.038;11.684;2023-08-08T05:52:33;4.80;;;1.38;;
7295;SDS011;40758;54.038;11.684;2023-08-08T05:55:00;3.25;;;0.82;;
7295;SDS011;40758;54.038;11.684;2023-08-08T05:57:27;5.38;;;1.10;;
7295;SDS011;40758;54.038;11.684;2023-08-08T05:59:54;3.15;;;0.90;;
7295;SDS011;40758;54.038;11.684;2023-08-08T06:02:20;3.75;;;1.25;;
7295;SDS011;40758;54.038;11.684;2023-08-08T06:04:47;4.38;;;1.45;;
7295;SDS011;40758;54.038;11.684;2023-08-08T06:07:14;4.07;;;1.42;;
7295;SDS011;40758;54.038;11.684;2023-08-08T06:09:41;5.13;;;1.08;;
7295;SDS011;40758;54.038;11.684;2023-08-08T06:12:08;6.53;;;2.85;;
7295;SDS011;40758;54.038;11.684;2023-08-08T06:14:35;5.40;;;0.90;;
7295;SDS011;40758;54.038;11.684;2023-08-08T06:17:03;5.28;;;1.05;;
7295;SDS011;40758;54.038;11.684;2023-08-08T06:19:30;3.47;;;1.02;;
7295;SDS011;40758;54.038;11.684;2023-08-08T06:21:56;4.45;;;1.27;;
7295;SDS011;40758;54.038;11.684;2023-08-08T06:24:24;3.85;;;1.40;;
7295;SDS011;40758;54.038;11.684;2023-08-08T06:26:51;4.13;;;2.85;;
7295;SDS011;40758;54.038;11.684;2023-08-08T06:29:17;3.35;;;1.15;;
7295;SDS011;40758;54.038;11.684;2023-08-08T06:31:47;3.63;;;1.98;;
7295;SDS011;40758;54.038;11.684;2023-08-08T06:34:14;5.25;;;3.47;;
7295;SDS011;40758;54.038;11.684;2023-08-08T06:36:41;5.50;;;1.45;;
7295;SDS011;40758;54.038;11.684;2023-08-08T06:39:08;5.35;;;1.02;;
7295;SDS011;40758;54.038;11.684;2023-08-08T06:41:34;3.47;;;0.50;;
7295;SDS011;40758;54.038;11.684;2023-08-08T06:44:01;5.47;;;1.15;;
7295;SDS011;40758;54.038;11.684;2023-08-08T06:46:28;4.00;;;2.05;;
7295;SDS011;40758;54.038;11.684;2023-08-08T06:48:55;3.72;;;1.10;;
7295;SDS011;40758;54.038;11.684;2023-08-08T06:51:25;3.78;;;3.00;;
7295;SDS011;40758;54.038;11.684;2023-08-08T06:53:52;3.20;;;1.15;;
7295;SDS011;40758;54.038;11.684;2023-08-08T06:56:19;4.60;;;3.58;;
7295;SDS011;40758;54.038;11.684;2023-08-08T06:58:45;4.72;;;1.33;;
7295;SDS011;40758;54.038;11.684;2023-08-08T07:01:12;3.47;;;1.27;;
7295;SDS011;40758;54.038;11.684;2023-08-08T07:03:40;5.20;;;3.25;;
7295;SDS011;40758;54.038;11.684;2023-08-08T07:06:07;4.20;;;1.38;;
7295;SDS011;40758;54.038;11.684;2023-08-08T07:08:34;5.00;;;1.27;;
7295;SDS011;40758;54.038;11.684;2023-08-08T07:11:01;4.05;;;0.93;;
7295;SDS011;40758;54.038;11.684;2023-08-08T07:13:27;3.47;;;0.85;;
7295;SDS011;40758;54.038;11.684;2023-08-08T07:15:54;4.65;;;1.02;;
7295;SDS011;40758;54.038;11.684;2023-08-08T07:18:21;5.00;;;1.20;;
7295;SDS011;40758;54.038;11.684;2023-08-08T07:20:48;3.75;;;2.55;;
7295;SDS011;40758;54.038;11.684;2023-08-08T07:23:16;5.75;;;1.40;;
7295;SDS011;40758;54.038;11.684;2023-08-08T07:25:43;3.40;;;1.30;;
7295;SDS011;40758;54.038;11.684;2023-08-08T07:28:09;4.22;;;1.17;;
7295;SDS011;40758;54.038;11.684;2023-08-08T07:30:36;4.28;;;1.00;;
7295;SDS011;40758;54.038;11.684;2023-08-08T07:33:03;6.30;;;1.73;;
7295;SDS011;40758;54.038;11.684;2023-08-08T07:35:30;3.45;;;1.33;;
7295;SDS011;40758;54.038;11.684;2023-08-08T07:37:56;7.35;;;3.33;;
7295;SDS011;40758;54.038;11.684;2023-08-08T07:40:23;5.93;;;1.65;;
7295;SDS011;40758;54.038;11.684;2023-08-08T07:42:50;5.88;;;3.35;;
7295;SDS011;40758;54.038;11.684;2023-08-08T07:45:17;5.57;;;1.45;;
7295;SDS011;40758;54.038;11.684;2023-08-08T07:47:44;4.10;;;1.20;;
7295;SDS011;40758;54.038;11.684;2023-08-08T07:50:11;3.13;;;1.00;;
7295;SDS011;40758;54.038;11.684;2023-08-08T07:52:38;2.92;;;1.20;;
7295;SDS011;40758;54.038;11.684;2023-08-08T07:55:05;3.45;;;1.20;;
7295;SDS011;40758;54.038;11.684;2023-08-08T07:57:32;4.13;;;3.30;;
7295;SDS011;40758;54.038;11.684;2023-08-08T08:00:03;2.95;;;1.52;;
7295;SDS011;40758;54.038;11.684;2023-08-08T08:02:36;4.25;;;1.13;;
7295;SDS011;40758;54.038;11.684;2023-08-08T08:05:03;5.15;;;1.15;;
7295;SDS011;40758;54.038;11.684;2023-08-08T08:07:34;3.10;;;1.38;;
7295;SDS011;40758;54.038;11.684;2023-08-08T08:10:02;3.65;;;1.25;;
7295;SDS011;40758;54.038;11.684;2023-08-08T08:12:31;4.85;;;1.33;;
7295;SDS011;40758;54.038;11.684;2023-08-08T08:14:58;5.28;;;1.58;;
7295;SDS011;40758;54.038;11.684;2023-08-08T08:17:25;4.07;;;1.70;;
7295;SDS011;40758;54.038;11.684;2023-08-08T08:19:54;3.40;;;2.08;;
7295;SDS011;40758;54.038;11.684;2023-08-08T08:22:21;3.42;;;1.88;;
7295;SDS011;40758;54.038;11.684;2023-08-08T08:24:49;4.78;;;1.70;;
7295;SDS011;40758;54.038;11.684;2023-08-08T08:27:17;4.90;;;1.13;;
7295;SDS011;40758;54.038;11.684;2023-08-08T08:29:46;4.35;;;3.17;;
7295;SDS011;40758;54.038;11.684;2023-08-08T08:32:13;4.10;;;0.85;;
7295;SDS011;40758;54.038;11.684;2023-08-08T08:34:40;4.15;;;1.58;;
7295;SDS011;40758;54.038;11.684;2023-08-08T08:37:07;4.53;;;1.13;;
7295;SDS011;40758;54.038;11.684;2023-08-08T08:39:35;4.35;;;1.30;;
7295;SDS011;40758;54.038;11.684;2023-08-08T08:42:02;6.25;;;1.45;;
7295;SDS011;40758;54.038;11.684;2023-08-08T08:44:31;4.22;;;0.70;;
7295;SDS011;40758;54.038;11.684;2023-08-08T08:46:59;3.28;;;1.38;;
7295;SDS011;40758;54.038;11.684;2023-08-08T08:49:29;4.13;;;0.98;;
7295;SDS011;40758;54.038;11.684;2023-08-08T08:51:57;4.30;;;1.42;;
7295;SDS011;40758;54.038;11.684;2023-08-08T08:54:28;5.63;;;1.95;;
7295;SDS011;40758;54.038;11.684;2023-08-08T08:56:56;4.05;;;0.70;;
7295;SDS011;40758;54.038;11.684;2023-08-08T08:59:24;8.30;;;1.08;;
7295;SDS011;40758;54.038;11.684;2023-08-08T09:01:53;3.70;;;1.80;;
7295;SDS011;40758;54.038;11.684;2023-08-08T09:04:21;2.80;;;1.02;;
7295;SDS011;40758;54.038;11.684;2023-08-08T09:06:49;5.25;;;0.68;;
7295;SDS011;40758;54.038;11.684;2023-08-08T09:09:17;4.53;;;3.90;;
7295;SDS011;40758;54.038;11.684;2023-08-08T09:11:51;5.47;;;1.50;;
7295;SDS011;40758;54.038;11.684;2023-08-08T09:14:24;3.95;;;1.00;;
7295;SDS011;40758;54.038;11.684;2023-08-08T09:16:53;3.47;;;1.10;;
7295;SDS011;40758;54.038;11.684;2023-08-08T09:19:21;2.97;;;1.30;;
7295;SDS011;40758;54.038;11.684;2023-08-08T09:21:48;4.75;;;1.45;;
7295;SDS011;40758;54.038;11.684;2023-08-08T09:24:16;3.00;;;1.02;;
7295;SDS011;40758;54.038;11.684;2023-08-08T09:26:43;3.20;;;0.70;;
7295;SDS011;40758;54.038;11.684;2023-08-08T09:29:14;4.47;;;1.60;;
7295;SDS011;40758;54.038;11.684;2023-08-08T09:31:41;3.85;;;1.95;;
7295;SDS011;40758;54.038;11.684;2023-08-08T09:34:08;4.35;;;1.08;;
7295;SDS011;40758;54.038;11.684;2023-08-08T09:36:35;4.13;;;1.55;;
7295;SDS011;40758;54.038;11.684;2023-08-08T09:39:03;3.88;;;1.48;;
7295;SDS011;40758;54.038;11.684;2023-08-08T09:41:31;3.50;;;0.70;;
7295;SDS011;40758;54.038;11.684;2023-08-08T09:43:58;4.57;;;1.25;;
7295;SDS011;40758;54.038;11.684;2023-08-08T09:46:30;3.47;;;1.33;;
7295;SDS011;40758;54.038;11.684;2023-08-08T09:48:57;3.67;;;1.20;;
7295;SDS011;40758;54.038;11.684;2023-08-08T09:51:25;3.20;;;0.82;;
7295;SDS011;40758;54.038;11.684;2023-08-08T09:53:52;3.28;;;2.97;;
7295;SDS011;40758;54.038;11.684;2023-08-08T09:56:20;3.50;;;0.73;;
7295;SDS011;40758;54.038;11.684;2023-08-08T09:58:48;3.33;;;0.95;;
7295;SDS011;40758;54.038;11.684;2023-08-08T10:01:15;5.70;;;0.80;;
7295;SDS011;40758;54.038;11.684;2023-08-08T10:03:42;2.80;;;1.13;;
7295;SDS011;40758;54.038;11.684;2023-08-08T10:06:10;2.75;;;1.08;;
7295;SDS011;40758;54.038;11.684;2023-08-08T10:08:37;2.03;;;0.70;;
7295;SDS011;40758;54.038;11.684;2023-08-08T10:11:05;2.70;;;0.98;;
7295;SDS011;40758;54.038;11.684;2023-08-08T10:13:35;4.28;;;2.22;;
7295;SDS011;40758;54.038;11.684;2023-08-08T10:16:09;2.70;;;1.63;;
7295;SDS011;40758;54.038;11.684;2023-08-08T10:18:36;3.70;;;2.72;;
7295;SDS011;40758;54.038;11.684;2023-08-08T10:21:06;2.00;;;1.25;;
7295;SDS011;40758;54.038;11.684;2023-08-08T10:23:38;2.30;;;0.90;;
7295;SDS011;40758;54.038;11.684;2023-08-08T10:26:16;2.83;;;1.45;;
7295;SDS011;40758;54.038;11.684;2023-08-08T10:28:58;3.58;;;0.90;;
7295;SDS011;40758;54.038;11.684;2023-08-08T10:31:26;3.17;;;1.27;;
7295;SDS011;40758;54.038;11.684;2023-08-08T10:34:04;5.28;;;0.80;;
7295;SDS011;40758;54.038;11.684;2023-08-08T10:39:31;3.08;;;1.10;;
7295;SDS011;40758;54.038;11.684;2023-08-08T10:42:00;3.63;;;1.42;;
7295;SDS011;40758;54.038;11.684;2023-08-08T10:44:30;6.20;;;1.48;;
7295;SDS011;40758;54.038;11.684;2023-08-08T10:46:59;4.18;;;2.28;;
7295;SDS011;40758;54.038;11.684;2023-08-08T10:49:27;2.55;;;0.80;;
7295;SDS011;40758;54.038;11.684;2023-08-08T10:51:54;3.35;;;1.58;;
7295;SDS011;40758;54.038;11.684;2023-08-08T10:54:30;5.32;;;1.42;;
7295;SDS011;40758;54.038;11.684;2023-08-08T10:59:36;2.83;;;0.80;;
7295;SDS011;40758;54.038;11.684;2023-08-08T11:02:04;3.33;;;1.90;;
7295;SDS011;40758;54.038;11.684;2023-08-08T11:04:31;2.90;;;1.05;;
7295;SDS011;40758;54.038;11.684;2023-08-08T11:06:59;4.25;;;0.90;;
7295;SDS011;40758;54.038;11.684;2023-08-08T11:09:26;4.28;;;1.13;;
7295;SDS011;40758;54.038;11.684;2023-08-08T11:11:53;2.90;;;0.95;;
7295;SDS011;40758;54.038;11.684;2023-08-08T11:14:20;2.38;;;0.63;;
7295;SDS011;40758;54.038;11.684;2023-08-08T11:16:50;3.42;;;0.73;;
7295;SDS011;40758;54.038;11.684;2023-08-08T11:19:19;4.68;;;2.95;;
7295;SDS011;40758;54.038;11.684;2023-08-08T11:21:46;1.65;;;1.17;;
7295;SDS011;40758;54.038;11.684;2023-08-08T11:24:15;2.45;;;0.88;;
7295;SDS011;40758;54.038;11.684;2023-08-08T11:26:43;3.08;;;1.35;;
7295;SDS011;40758;54.038;11.684;2023-08-08T11:29:11;2.70;;;0.82;;
7295;SDS011;40758;54.038;11.684;2023-08-08T11:31:38;3.28;;;1.30;;
7295;SDS011;40758;54.038;11.684;2023-08-08T11:34:05;2.28;;;0.80;;
7295;SDS011;40758;54.038;11.684;2023-08-08T11:36:32;3.40;;;1.83;;
7295;SDS011;40758;54.038;11.684;2023-08-08T11:39:02;2.78;;;0.90;;
7295;SDS011;40758;54.038;11.684;2023-08-08T11:41:35;2.88;;;1.58;;
7295;SDS011;40758;54.038;11.684;2023-08-08T11:44:05;2.95;;;1.73;;
7295;SDS011;40758;54.038;11.684;2023-08-08T11:46:35;3.50;;;1.63;;
7295;SDS011;40758;54.038;11.684;2023-08-08T11:49:09;2.90;;;0.88;;
7295;SDS011;40758;54.038;11.684;2023-08-08T11:51:36;3.40;;;1.77;;
7295;SDS011;40758;54.038;11.684;2023-08-08T11:54:03;3.28;;;1.38;;
7295;SDS011;40758;54.038;11.684;2023-08-08T11:56:33;4.05;;;1.92;;
7295;SDS011;40758;54.038;11.684;2023-08-08T11:59:01;1.92;;;1.63;;
7295;SDS011;40758;54.038;11.684;2023-08-08T12:01:30;3.47;;;1.67;;
7295;SDS011;40758;54.038;11.684;2023-08-08T12:03:57;2.38;;;0.90;;
7295;SDS011;40758;54.038;11.684;2023-08-08T12:06:27;3.72;;;1.63;;
7295;SDS011;40758;54.038;11.684;2023-08-08T12:08:55;3.70;;;0.93;;
7295;SDS011;40758;54.038;11.684;2023-08-08T12:11:22;4.22;;;1.42;;
7295;SDS011;40758;54.038;11.684;2023-08-08T12:13:57;2.47;;;0.65;;
7295;SDS011;40758;54.038;11.684;2023-08-08T12:16:29;2.42;;;0.85;;
7295;SDS011;40758;54.038;11.684;2023-08-08T12:19:03;2.03;;;1.00;;
7295;SDS011;40758;54.038;11.684;2023-08-08T12:21:33;2.97;;;2.20;;
7295;SDS011;40758;54.038;11.684;2023-08-08T12:24:01;2.85;;;1.73;;
7295;SDS011;40758;54.038;11.684;2023-08-08T12:26:29;3.40;;;1.15;;
7295;SDS011;40758;54.038;11.684;2023-08-08T12:28:55;7.88;;;0.85;;
7295;SDS011;40758;54.038;11.684;2023-08-08T12:31:22;2.72;;;0.88;;
7295;SDS011;40758;54.038;11.684;2023-08-08T12:33:49;3.38;;;0.77;;
7295;SDS011;40758;54.038;11.684;2023-08-08T12:36:18;3.17;;;0.93;;
7295;SDS011;40758;54.038;11.684;2023-08-08T12:38:45;2.85;;;1.05;;
7295;SDS011;40758;54.038;11.684;2023-08-08T12:41:13;3.30;;;1.13;;
7295;SDS011;40758;54.038;11.684;2023-08-08T12:43:40;2.33;;;1.38;;
7295;SDS011;40758;54.038;11.684;2023-08-08T12:46:06;2.42;;;0.93;;
7295;SDS011;40758;54.038;11.684;2023-08-08T12:48:33;3.33;;;1.42;;
7295;SDS011;40758;54.038;11.684;2023-08-08T12:51:00;3.67;;;0.90;;
7295;SDS011;40758;54.038;11.684;2023-08-08T12:53:27;2.50;;;0.88;;
7295;SDS011;40758;54.038;11.684;2023-08-08T12:55:54;2.50;;;1.88;;
7295;SDS011;40758;54.038;11.684;2023-08-08T12:58:21;2.70;;;2.50;;
7295;SDS011;40758;54.038;11.684;2023-08-08T13:00:49;2.72;;;0.80;;
7295;SDS011;40758;54.038;11.684;2023-08-08T13:03:16;2.80;;;0.50;;
7295;SDS011;40758;54.038;11.684;2023-08-08T13:05:43;4.95;;;2.90;;
7295;SDS011;40758;54.038;11.684;2023-08-08T13:08:09;3.33;;;0.75;;
7295;SDS011;40758;54.038;11.684;2023-08-08T13:10:39;3.25;;;0.82;;
7295;SDS011;40758;54.038;11.684;2023-08-08T13:13:06;2.85;;;0.93;;
7295;SDS011;40758;54.038;11.684;2023-08-08T13:15:33;3.95;;;1.00;;
7295;SDS011;40758;54.038;11.684;2023-08-08T13:18:01;3.22;;;0.70;;
7295;SDS011;40758;54.038;11.684;2023-08-08T13:20:27;5.28;;;0.90;;
7295;SDS011;40758;54.038;11.684;2023-08-08T13:22:54;2.95;;;0.90;;
7295;SDS011;40758;54.038;11.684;2023-08-08T13:25:21;3.00;;;1.58;;
7295;SDS011;40758;54.038;11.684;2023-08-08T13:27:47;5.20;;;2.13;;
7295;SDS011;40758;54.038;11.684;2023-08-08T13:30:15;3.65;;;0.93;;
7295;SDS011;40758;54.038;11.684;2023-08-08T13:32:43;6.10;;;0.63;;
7295;SDS011;40758;54.038;11.684;2023-08-08T13:35:10;8.50;;;1.52;;
7295;SDS011;40758;54.038;11.684;2023-08-08T13:37:36;10.23;;;1.42;;
7295;SDS011;40758;54.038;11.684;2023-08-08T13:40:03;8.98;;;1.52;;
7295;SDS011;40758;54.038;11.684;2023-08-08T13:42:30;12.27;;;1.95;;
7295;SDS011;40758;54.038;11.684;2023-08-08T13:44:57;11.00;;;1.83;;
7295;SDS011;40758;54.038;11.684;2023-08-08T13:47:23;15.70;;;1.27;;
7295;SDS011;40758;54.038;11.684;2023-08-08T13:49:51;6.18;;;1.70;;
7295;SDS011;40758;54.038;11.684;2023-08-08T13:52:19;7.07;;;1.10;;
7295;SDS011;40758;54.038;11.684;2023-08-08T13:54:45;6.80;;;1.40;;
7295;SDS011;40758;54.038;11.684;2023-08-08T13:57:12;11.77;;;1.73;;
7295;SDS011;40758;54.038;11.684;2023-08-08T13:59:42;10.20;;;1.73;;
7295;SDS011;40758;54.038;11.684;2023-08-08T14:02:10;13.65;;;1.65;;
7295;SDS011;40758;54.038;11.684;2023-08-08T14:04:37;11.30;;;1.35;;
7295;SDS011;40758;54.038;11.684;2023-08-08T14:07:05;13.80;;;2.58;;
7295;SDS011;40758;54.038;11.684;2023-08-08T14:09:33;8.27;;;1.27;;
7295;SDS011;40758;54.038;11.684;2023-08-08T14:12:00;9.30;;;1.30;;
7295;SDS011;40758;54.038;11.684;2023-08-08T14:14:27;5.78;;;1.33;;
7295;SDS011;40758;54.038;11.684;2023-08-08T14:16:54;6.60;;;1.80;;
7295;SDS011;40758;54.038;11.684;2023-08-08T14:19:21;4.85;;;0.90;;
7295;SDS011;40758;54.038;11.684;2023-08-08T14:21:48;9.30;;;1.85;;
7295;SDS011;40758;54.038;11.684;2023-08-08T14:24:15;5.30;;;0.70;;
7295;SDS011;40758;54.038;11.684;2023-08-08T14:26:42;4.38;;;1.13;;
7295;SDS011;40758;54.038;11.684;2023-08-08T14:29:08;4.60;;;0.95;;
7295;SDS011;40758;54.038;11.684;2023-08-08T14:31:35;4.80;;;1.33;;
7295;SDS011;40758;54.038;11.684;2023-08-08T14:36:59;6.55;;;1.10;;
7295;SDS011;40758;54.038;11.684;2023-08-08T14:39:27;6.82;;;1.50;;
7295;SDS011;40758;54.038;11.684;2023-08-08T14:41:56;4.50;;;1.00;;
7295;SDS011;40758;54.038;11.684;2023-08-08T14:44:26;4.00;;;0.88;;
7295;SDS011;40758;54.038;11.684;2023-08-08T14:46:53;5.57;;;1.45;;
7295;SDS011;40758;54.038;11.684;2023-08-08T14:49:23;3.97;;;1.17;;
7295;SDS011;40758;54.038;11.684;2023-08-08T14:51:55;5.47;;;1.73;;
7295;SDS011;40758;54.038;11.684;2023-08-08T14:54:22;4.53;;;1.05;;
7295;SDS011;40758;54.038;11.684;2023-08-08T14:56:49;5.53;;;1.20;;
7295;SDS011;40758;54.038;11.684;2023-08-08T14:59:15;4.80;;;0.80;;
7295;SDS011;40758;54.038;11.684;2023-08-08T15:01:42;7.13;;;2.65;;
7295;SDS011;40758;54.038;11.684;2023-08-08T15:04:09;4.82;;;1.38;;